Anchorage/Elmendorf AFB, Alaska
Current Conditions -  °F | °C
As of 3:58 AM on Wednesday 22 Oct 2014 (Local Time) from PAED Reporting Station
Clear Clear  
Wind Chill: 24°   Ceiling: Unl
Heat Index: 24°   Visibility: 10mi
Dew Point: 21°   Wind: 0mph
Humidity: 89%   Direction: NA
Pressure: 29.22"   Gusts: NA
Location:  61.25°N, 149.79°W
Report Text: PAED 221158Z AUTO 00000KT 10SM CLR M04/M06 A2922 RMK AO2 SLP892 T10451061 11014 21050 53001 $
Loading
Personal Weather Stations






























Interactive Weather Map
Tropical Storm Tracking
New forecast layout! Learn more

10-Day Weather Forecast

Advertisements
Track Severe Weather on mobile